FW7106 Weather Reports


Display with metric or nautical units.
time (UTC)temp
F
wind
direction
speed
MPH
gust
MPH
rain 1hr
in
rain 24hr
in
rain mn
in
humidity
%
barometer
mb
20221204192425 60 131 1.0 1.0 0.00 0.00 0.00 77 1021.6
20221204191925 59 33 0.0 0.0 0.00 0.00 0.00 78 1021.8
20221204191423 59 115 0.0 0.0 0.00 0.00 0.00 78 1021.8
20221204190923 59 79 0.0 0.0 0.00 0.00 0.00 76 1021.8
20221204190422 59 115 1.0 1.0 0.00 0.00 0.00 76 1021.8
20221204185922 59 350 0.0 0.0 0.00 0.00 0.00 76 1022.3
20221204185420 58 86 0.0 0.0 0.00 0.00 0.00 78 1022.4
20221204184920 59 117 2.0 2.0 0.00 0.00 0.00 75 1022.6
20221204184419 59 65 0.0 0.0 0.00 0.00 0.00 74 1022.8
20221204183917 59 344 0.0 0.0 0.00 0.00 0.00 73 1022.9
20221204183415 59 345 1.0 1.0 0.00 0.00 0.00 74 1023.0
20221204182915 59 345 0.0 0.0 0.00 0.00 0.00 75 1022.9
20221204182415 58 344 0.0 1.0 0.00 0.00 0.00 77 1023.1
20221204181915 58 336 1.0 2.0 0.00 0.00 0.00 78 1023.3
20221204181414 58 340 1.0 2.0 0.00 0.00 0.00 77 1023.3
20221204180914 57 341 3.0 3.0 0.00 0.00 0.00 78 1023.5
20221204180414 57 335 2.0 2.0 0.00 0.00 0.00 77 1023.4
20221204175913 57 332 3.0 3.0 0.00 0.00 0.00 77 1023.8
20221204175413 57 341 0.0 1.0 0.00 0.00 0.00 76 1024.1
20221204174913 57 333 0.0 1.0 0.00 0.00 0.00 76 1023.8
20221204174411 57 336 2.0 2.0 0.00 0.00 0.00 76 1024.3
20221204173910 57 333 0.0 1.0 0.00 0.00 0.00 77 1024.3
20221204173408 57 343 1.0 2.0 0.00 0.00 0.00 77 1024.5
20221204172907 57 324 3.0 3.0 0.00 0.00 0.00 76 1024.7
20221204172406 56 335 2.0 3.0 0.00 0.00 0.00 76 1025.0
20221204171904 57 347 2.0 3.0 0.00 0.00 0.00 77 1024.7
20221204171404 57 5 0.0 0.0 0.00 0.00 0.00 75 1024.9
20221204170903 57 343 1.0 1.0 0.00 0.00 0.00 74 1025.3
20221204170402 57 341 3.0 5.0 0.00 0.00 0.00 75 1024.9
20221204165902 57 28 0.0 1.0 0.00 0.00 0.00 75 1025.0
20221204165400 56 339 2.0 2.0 0.00 0.00 0.00 74 1025.5
20221204164900 57 340 3.0 3.0 0.00 0.00 0.00 73 1025.4
20221204164400 57 337 1.0 2.0 0.00 0.00 0.00 73 1025.4
20221204163858 57 46 0.0 1.0 0.00 0.00 0.00 73 1025.3
20221204163357 57 22 0.0 1.0 0.00 0.00 0.00 73 1025.5
20221204162857 57 34 0.0 1.0 0.00 0.00 0.00 74 1025.4
20221204162356 56 359 2.0 2.0 0.00 0.00 0.00 73 1025.3
20221204161855 56 1 1.0 1.0 0.00 0.00 0.00 73 1025.8
20221204161354 56 5 1.0 1.0 0.00 0.00 0.00 73 1025.3
20221204160853 56 17 1.0 1.0 0.00 0.00 0.00 72 1025.7
20221204160353 56 343 3.0 3.0 0.00 0.00 0.00 73 1025.5
20221204155851 56 12 2.0 2.0 0.00 0.00 0.00 73 1025.7
20221204155350 56 21 1.0 1.0 0.00 0.00 0.00 73 1025.7
20221204154850 55 347 2.0 2.0 0.00 0.00 0.00 74 1025.5
20221204154349 55 342 2.0 3.0 0.00 0.00 0.00 73 1025.7
20221204153847 56 356 4.0 5.0 0.00 0.00 0.00 72 1026.1
20221204153345 56 355 0.0 1.0 0.00 0.00 0.00 73 1025.8
20221204152844 55 336 1.0 2.0 0.00 0.00 0.00 73 1026.0
20221204152343 55 339 1.0 1.0 0.00 0.00 0.00 74 1025.8
20221204151843 55 338 2.0 3.0 0.00 0.00 0.00 73 1025.8
20221204151341 55 339 2.0 2.0 0.00 0.00 0.00 72 1025.9
20221204150840 55 342 3.0 5.0 0.00 0.00 0.00 74 1025.9
20221204150340 55 340 3.0 3.0 0.00 0.00 0.00 73 1026.0
20221204145838 55 338 2.0 2.0 0.00 0.00 0.00 73 1025.7
20221204145337 55 345 2.0 2.0 0.00 0.00 0.00 74 1025.9
20221204144836 55 350 1.0 1.0 0.00 0.00 0.00 74 1025.8
20221204144335 55 2 0.0 1.0 0.00 0.00 0.00 74 1025.8
20221204143834 55 4 0.0 1.0 0.00 0.00 0.00 74 1025.3
20221204143334 55 336 4.0 5.0 0.00 0.00 0.00 74 1025.5
20221204142831 55 0 2.0 2.0 0.00 0.00 0.00 74 1025.8
20221204142330 55 157 1.0 1.0 0.00 0.00 0.00 72 1025.3
20221204141829 55 36 0.0 1.0 0.00 0.00 0.00 75 1025.3
20221204141329 55 104 2.0 2.0 0.00 0.00 0.00 74 1025.5
20221204140827 54 12 1.0 1.0 0.00 0.00 0.00 75 1025.5
20221204140327 54 343 2.0 2.0 0.00 0.00 0.00 75 1025.7
20221204135826 54 357 2.0 2.0 0.00 0.00 0.00 75 1025.7
20221204135326 54 336 3.0 3.0 0.00 0.00 0.00 75 1026.1
20221204134826 54 338 3.0 6.0 0.00 0.00 0.00 75 1025.9
20221204134325 54 343 3.0 3.0 0.00 0.00 0.00 75 1026.1
20221204133824 54 340 5.0 5.0 0.00 0.00 0.00 74 1025.9
20221204133324 54 338 2.0 2.0 0.00 0.00 0.00 75 1026.0
20221204132822 54 340 2.0 2.0 0.00 0.00 0.00 75 1026.1
20221204132321 54 337 2.0 3.0 0.00 0.00 0.00 75 1026.1
20221204131821 54 337 2.0 3.0 0.00 0.00 0.00 75 1026.3
20221204131319 54 325 3.0 3.0 0.00 0.00 0.00 76 1026.2
20221204130819 54 339 3.0 3.0 0.00 0.00 0.00 76 1026.1
20221204130319 54 335 1.0 1.0 0.00 0.00 0.00 77 1026.1
20221204125818 54 337 3.0 3.0 0.00 0.00 0.00 77 1026.1
20221204125317 54 337 3.0 5.0 0.00 0.00 0.00 76 1026.0
20221204124817 54 324 2.0 2.0 0.00 0.00 0.00 77 1025.9
20221204124316 54 328 3.0 5.0 0.00 0.00 0.00 77 1025.7
20221204123816 54 335 2.0 2.0 0.00 0.00 0.00 78 1025.8
20221204123315 54 338 3.0 3.0 0.00 0.00 0.00 78 1025.9
20221204122815 54 327 1.0 2.0 0.00 0.00 0.00 78 1025.8
20221204122314 54 344 3.0 3.0 0.00 0.00 0.00 77 1025.8
20221204121814 54 336 1.0 1.0 0.00 0.00 0.00 78 1025.8
20221204121312 54 337 2.0 2.0 0.00 0.00 0.00 78 1025.8
20221204120812 54 328 1.0 1.0 0.00 0.00 0.00 77 1025.7
20221204120310 54 321 1.0 1.0 0.00 0.00 0.00 77 1025.4
20221204115809 54 317 1.0 1.0 0.00 0.00 0.00 77 1025.8
20221204115309 54 316 1.0 2.0 0.00 0.00 0.00 77 1025.7
20221204114808 54 312 1.0 2.0 0.00 0.00 0.00 77 1025.9
20221204114308 54 312 1.0 2.0 0.00 0.00 0.00 77 1025.8
20221204113808 54 321 1.0 1.0 0.00 0.00 0.00 77 1025.8
20221204113308 54 331 0.0 1.0 0.00 0.00 0.00 77 1025.8
20221204112806 54 334 2.0 2.0 0.00 0.00 0.00 76 1025.7
20221204112305 54 328 1.0 2.0 0.00 0.00 0.00 76 1025.4
20221204111804 54 345 2.0 2.0 0.00 0.00 0.00 75 1025.3
20221204111304 54 338 2.0 2.0 0.00 0.00 0.00 75 1025.3
20221204110803 54 342 2.0 3.0 0.00 0.00 0.00 75 1025.3
20221204110303 54 341 2.0 2.0 0.00 0.00 0.00 75 1025.3
20221204105801 54 344 1.0 1.0 0.00 0.00 0.00 75 1025.4
20221204105259 54 345 2.0 2.0 0.00 0.00 0.00 75 1025.1
20221204104758 54 343 1.0 1.0 0.00 0.00 0.00 75 1025.3
20221204104257 54 342 2.0 2.0 0.00 0.00 0.00 74 1025.2
20221204103757 54 333 3.0 3.0 0.00 0.00 0.00 74 1025.3
20221204103255 54 338 2.0 2.0 0.00 0.00 0.00 75 1025.3
20221204102753 54 346 3.0 3.0 0.00 0.00 0.00 75 1025.3
20221204102252 54 332 2.0 2.0 0.00 0.00 0.00 75 1025.1
20221204101751 54 336 2.0 3.0 0.00 0.00 0.00 75 1025.2
20221204101249 54 338 3.0 3.0 0.00 0.00 0.00 75 1025.1
20221204100749 54 339 1.0 1.0 0.00 0.00 0.00 76 1025.0
20221204100249 54 347 2.0 2.0 0.00 0.00 0.00 76 1025.0
20221204095747 54 340 2.0 2.0 0.00 0.00 0.00 76 1025.2
20221204095245 54 334 0.0 1.0 0.00 0.00 0.00 76 1025.4
20221204094744 54 293 1.0 1.0 0.00 0.00 0.00 76 1025.2
20221204094243 54 294 1.0 1.0 0.00 0.00 0.00 76 1025.4
20221204093742 54 293 1.0 1.0 0.00 0.00 0.00 76 1025.4
20221204093242 54 293 1.0 1.0 0.00 0.00 0.00 76 1025.7
20221204092742 54 283 1.0 2.0 0.00 0.00 0.00 75 1025.5
20221204092241 54 289 1.0 1.0 0.00 0.00 0.00 76 1025.4
20221204091740 54 299 0.0 1.0 0.00 0.00 0.00 77 1025.7
20221204091238 54 307 0.0 0.0 0.00 0.00 0.00 77 1025.5
20221204090738 54 301 0.0 1.0 0.00 0.00 0.00 78 1025.5
20221204090237 54 301 0.0 0.0 0.00 0.00 0.00 78 1025.5
20221204085737 54 301 0.0 1.0 0.00 0.00 0.00 76 1025.5
20221204085236 54 302 0.0 1.0 0.00 0.00 0.00 75 1025.5
20221204084736 54 283 0.0 1.0 0.00 0.00 0.00 75 1025.7
20221204084233 54 279 0.0 1.0 0.00 0.00 0.00 76 1025.7
20221204083733 54 331 0.0 1.0 0.00 0.00 0.00 75 1026.0
20221204083232 54 332 0.0 0.0 0.00 0.00 0.00 75 1025.7
20221204082730 55 337 1.0 1.0 0.00 0.00 0.00 76 1025.7
20221204082230 55 299 1.0 1.0 0.00 0.00 0.00 75 1025.8
20221204081728 55 339 2.0 2.0 0.00 0.00 0.00 73 1025.8
20221204081227 55 340 1.0 1.0 0.00 0.00 0.00 73 1025.8
20221204080725 55 336 2.0 2.0 0.00 0.00 0.00 74 1025.9
20221204080223 55 325 2.0 2.0 0.00 0.00 0.00 73 1025.7
20221204075722 55 337 1.0 2.0 0.00 0.00 0.00 73 1025.8
20221204075221 55 338 1.0 2.0 0.00 0.00 0.00 73 1025.8
20221204074719 55 339 3.0 3.0 0.00 0.00 0.00 73 1025.5
20221204074219 55 342 3.0 3.0 0.00 0.00 0.00 73 1026.0
20221204073718 55 336 3.0 3.0 0.00 0.00 0.00 73 1025.8
20221204073217 55 337 2.0 2.0 0.00 0.00 0.00 73 1026.1
20221204072716 55 337 0.0 1.0 0.00 0.00 0.00 74 1026.1
20221204072216 55 337 1.0 1.0 0.00 0.00 0.00 73 1026.2
20221204071714 55 339 1.0 1.0 0.00 0.00 0.00 73 1026.2
20221204071213 55 340 0.0 0.0 0.00 0.00 0.00 73 1026.3
20221204070712 55 340 0.0 1.0 0.00 0.00 0.00 72 1026.4
20221204070211 55 333 2.0 2.0 0.00 0.00 0.00 72 1026.2
20221204065711 55 340 1.0 1.0 0.00 0.00 0.00 74 1026.3
20221204065210 55 339 1.0 1.0 0.00 0.00 0.00 74 1026.1
20221204064708 55 333 1.0 1.0 0.00 0.00 0.00 73 1026.3
20221204064208 55 330 0.0 1.0 0.00 0.00 0.00 73 1026.5
20221204063707 55 337 1.0 1.0 0.00 0.00 0.00 73 1026.3
20221204063207 55 339 2.0 2.0 0.00 0.00 0.00 73 1026.5
20221204062705 55 341 1.0 2.0 0.00 0.00 0.00 73 1026.3
20221204062203 55 335 2.0 2.0 0.00 0.00 0.00 73 1026.0
20221204061701 55 342 1.0 2.0 0.00 0.00 0.00 73 1026.4
20221204061159 55 342 2.0 2.0 0.00 0.00 0.00 74 1026.2
20221204060659 55 338 1.0 1.0 0.00 0.00 0.00 73 1026.4
20221204060157 55 337 2.0 2.0 0.00 0.00 0.00 75 1026.5
20221204055655 55 337 1.0 1.0 0.00 0.00 0.00 74 1026.4
20221204055154 55 337 1.0 1.0 0.00 0.00 0.00 73 1026.7
20221204054653 55 337 1.0 1.0 0.00 0.00 0.00 74 1026.6
20221204054153 55 337 1.0 1.0 0.00 0.00 0.00 73 1026.6
20221204053652 55 337 2.0 2.0 0.00 0.00 0.00 73 1026.6
20221204053151 55 337 1.0 2.0 0.00 0.00 0.00 73 1026.9
20221204052649 55 338 2.0 2.0 0.00 0.00 0.00 72 1026.8
20221204052148 55 340 2.0 2.0 0.00 0.00 0.00 73 1026.8
20221204051648 55 329 1.0 1.0 0.00 0.00 0.00 72 1026.8
20221204051147 55 336 1.0 1.0 0.00 0.00 0.00 73 1027.0
20221204050647 55 329 1.0 2.0 0.00 0.00 0.00 73 1027.1
20221204050146 55 348 1.0 2.0 0.00 0.00 0.00 72 1026.8
20221204045644 55 345 3.0 5.0 0.00 0.00 0.00 72 1026.9
20221204045144 55 338 2.0 2.0 0.00 0.00 0.00 72 1027.2
20221204044642 55 338 3.0 3.0 0.00 0.00 0.00 72 1027.4
20221204044142 55 336 2.0 2.0 0.00 0.00 0.00 72 1027.4
20221204043642 55 337 2.0 2.0 0.00 0.00 0.00 72 1027.5
20221204043142 55 337 2.0 2.0 0.00 0.00 0.00 72 1027.5
20221204042640 55 338 2.0 2.0 0.00 0.00 0.00 72 1027.6
20221204042140 55 337 2.0 2.0 0.00 0.00 0.00 72 1027.5
20221204041638 55 336 0.0 0.0 0.00 0.00 0.00 71 1027.7
20221204041136 55 335 1.0 1.0 0.00 0.00 0.00 71 1027.7
20221204040636 55 334 1.0 1.0 0.00 0.00 0.00 71 1027.7
20221204040135 55 333 1.0 1.0 0.00 0.00 0.00 71 1027.7
20221204035635 55 340 2.0 3.0 0.00 0.00 0.00 71 1027.6
20221204035134 55 341 2.0 3.0 0.00 0.00 0.00 70 1027.7
20221204034633 55 343 1.0 2.0 0.00 0.00 0.00 70 1027.6
20221204034133 55 339 3.0 3.0 0.00 0.00 0.00 70 1027.5
20221204033633 55 342 3.0 3.0 0.00 0.00 0.00 71 1027.5
20221204033131 55 343 3.0 3.0 0.00 0.00 0.00 70 1027.5
20221204032631 55 337 2.0 2.0 0.00 0.00 0.00 70 1027.6
20221204032130 55 341 3.0 3.0 0.00 0.00 0.00 70 1027.5
20221204031629 55 339 3.0 3.0 0.00 0.00 0.00 70 1027.5
20221204031129 55 342 2.0 2.0 0.00 0.00 0.00 70 1027.7
20221204030628 55 344 1.0 2.0 0.00 0.00 0.00 69 1027.7
20221204030126 55 338 1.0 2.0 0.00 0.00 0.00 69 1027.7
20221204025624 55 346 3.0 3.0 0.00 0.00 0.00 69 1027.7
20221204025124 55 344 3.0 3.0 0.00 0.00 0.00 69 1027.7
20221204024624 55 341 1.0 1.0 0.00 0.00 0.00 69 1027.7
20221204024124 55 342 1.0 1.0 0.00 0.00 0.00 69 1027.8
20221204023622 55 5 2.0 3.0 0.00 0.00 0.00 68 1027.8
20221204023121 55 342 3.0 3.0 0.00 0.00 0.00 68 1027.6
20221204022619 55 343 2.0 2.0 0.00 0.00 0.00 68 1027.8
20221204022119 55 336 2.0 3.0 0.00 0.00 0.00 69 1027.7
20221204021618 56 336 3.0 3.0 0.00 0.00 0.00 68 1027.7
20221204021116 56 349 3.0 5.0 0.00 0.00 0.00 68 1027.9
20221204020615 55 338 3.0 3.0 0.00 0.00 0.00 68 1027.8
20221204020115 55 345 4.0 6.0 0.00 0.00 0.00 68 1027.8
20221204015614 55 336 2.0 2.0 0.00 0.00 0.00 68 1027.8
20221204015114 55 344 3.0 5.0 0.00 0.00 0.00 68 1027.7
20221204014613 55 340 4.0 5.0 0.00 0.00 0.00 68 1027.9
20221204014111 55 341 3.0 5.0 0.00 0.00 0.00 68 1027.8
20221204013611 55 333 4.0 6.0 0.00 0.00 0.00 68 1027.8
20221204013109 55 338 3.0 5.0 0.00 0.00 0.00 68 1027.9
20221204012609 55 337 2.0 3.0 0.00 0.00 0.00 69 1027.7
20221204012108 55 339 4.0 6.0 0.00 0.00 0.00 68 1027.9
20221204011608 55 337 3.0 3.0 0.00 0.00 0.00 69 1027.6
20221204011107 55 335 3.0 3.0 0.00 0.00 0.00 68 1027.9
20221204010607 55 336 3.0 3.0 0.00 0.00 0.00 69 1027.7
20221204010107 55 337 3.0 3.0 0.00 0.00 0.00 67 1027.8
20221204005605 55 340 4.0 6.0 0.00 0.00 0.00 68 1027.5
20221204005104 55 324 3.0 3.0 0.00 0.00 0.00 68 1027.2
20221204004604 55 339 3.0 3.0 0.00 0.00 0.00 68 1027.4
20221204004104 55 336 4.0 5.0 0.00 0.00 0.00 68 1027.4
20221204003604 56 340 3.0 5.0 0.00 0.00 0.00 69 1027.3
20221204003103 56 336 2.0 2.0 0.00 0.00 0.00 69 1027.4
20221204002603 56 329 3.0 3.0 0.00 0.00 0.00 69 1027.3
20221204002103 56 340 4.0 7.0 0.00 0.00 0.00 68 1027.3
20221204001603 56 329 2.0 2.0 0.00 0.00 0.00 70 1027.2
20221204001101 56 339 3.0 3.0 0.00 0.00 0.00 70 1027.3
20221204000600 56 355 4.0 5.0 0.00 0.00 0.00 69 1027.1
20221204000058 56 319 3.0 5.0 0.00 0.00 0.00 69 1027.1
20221203235558 56 325 4.0 6.0 0.00 0.00 0.00 71 1027.0
20221203235057 56 339 5.0 7.0 0.00 0.00 0.00 71 1027.0
20221203234556 56 338 4.0 6.0 0.00 0.00 0.00 72 1027.3
20221203234055 56 340 4.0 5.0 0.00 0.00 0.00 73 1027.2
20221203233555 56 333 2.0 2.0 0.00 0.00 0.00 72 1027.0
20221203233055 56 350 2.0 3.0 0.00 0.00 0.00 72 1026.9
20221203232555 56 344 5.0 7.0 0.00 0.00 0.00 72 1026.9
20221203232053 57 344 3.0 3.0 0.00 0.00 0.00 72 1026.8
20221203231552 57 343 3.0 3.0 0.00 0.00 0.00 71 1027.0
20221203231051 57 347 4.0 5.0 0.00 0.00 0.00 71 1026.9
20221203230551 57 349 4.0 5.0 0.00 0.00 0.00 71 1027.0
20221203230051 57 338 4.0 5.0 0.00 0.00 0.00 70 1026.8
20221203225550 57 339 2.0 3.0 0.00 0.00 0.00 70 1027.0
20221203225050 57 343 3.0 3.0 0.00 0.00 0.00 70 1026.9
20221203224549 57 340 2.0 2.0 0.00 0.00 0.00 71 1026.8
20221203224049 57 347 5.0 6.0 0.00 0.00 0.00 70 1026.8
20221203223548 57 335 4.0 6.0 0.00 0.00 0.00 70 1026.8
20221203223046 57 351 4.0 5.0 0.00 0.00 0.00 70 1026.5
20221203222544 57 345 4.0 6.0 0.00 0.00 0.00 70 1026.5
20221203222044 57 351 3.0 3.0 0.00 0.00 0.00 70 1026.5
20221203221544 57 346 4.0 5.0 0.00 0.00 0.00 69 1026.3
20221203221042 57 333 7.0 8.0 0.00 0.00 0.00 69 1026.4
20221203220542 58 331 5.0 8.0 0.00 0.00 0.00 70 1026.4
20221203220041 58 336 3.0 3.0 0.00 0.00 0.00 70 1026.3
20221203215540 58 336 4.0 5.0 0.00 0.00 0.00 71 1026.4
20221203215038 58 332 3.0 3.0 0.00 0.00 0.00 70 1026.5
20221203214538 58 334 3.0 5.0 0.00 0.00 0.00 71 1026.4
20221203214038 59 326 3.0 5.0 0.00 0.00 0.00 71 1026.4
20221203213537 59 339 5.0 6.0 0.00 0.00 0.00 71 1026.3
20221203213036 59 335 3.0 3.0 0.00 0.00 0.00 71 1026.3
20221203212534 59 338 4.0 5.0 0.00 0.00 0.00 70 1026.3
20221203212033 59 323 2.0 2.0 0.00 0.00 0.00 71 1026.4
20221203211531 60 338 3.0 3.0 0.00 0.00 0.00 70 1026.3
20221203211030 60 327 3.0 3.0 0.00 0.00 0.00 70 1026.0
20221203210530 60 322 4.0 5.0 0.00 0.00 0.00 71 1026.1
20221203210029 60 327 2.0 3.0 0.00 0.00 0.00 72 1026.3
20221203205527 60 351 5.0 6.0 0.00 0.00 0.00 71 1026.3
20221203205026 60 326 2.0 3.0 0.00 0.00 0.00 71 1025.9
20221203204525 60 317 2.0 3.0 0.00 0.00 0.00 71 1026.0
20221203204024 60 349 5.0 6.0 0.00 0.00 0.00 71 1026.0
20221203203523 60 345 3.0 3.0 0.00 0.00 0.00 71 1026.1
20221203203022 60 326 3.0 3.0 0.00 0.00 0.00 71 1026.2
20221203202520 60 332 4.0 6.0 0.00 0.00 0.00 72 1026.1
20221203202018 60 344 3.0 3.0 0.00 0.00 0.00 72 1026.2
20221203201516 60 320 3.0 5.0 0.00 0.00 0.00 73 1026.3
20221203201014 61 338 3.0 5.0 0.00 0.00 0.00 74 1026.2
20221203200513 60 325 3.0 5.0 0.00 0.00 0.00 74 1026.2
20221203200012 60 340 4.0 5.0 0.00 0.00 0.00 74 1026.4
20221203195511 60 346 3.0 5.0 0.00 0.00 0.00 74 1026.4
20221203195010 60 347 6.0 7.0 0.00 0.00 0.00 74 1026.6
20221203194509 61 354 6.0 7.0 0.00 0.00 0.00 72 1026.4
20221203194008 61 342 3.0 6.0 0.00 0.00 0.00 74 1026.5
20221203193506 61 344 3.0 5.0 0.00 0.00 0.00 73 1026.6
20221203193003 60 329 3.0 3.0 0.00 0.00 0.00 75 1026.7